Port Charlotte, Florida
Current Conditions -  °F | °C
As of 9:53 AM on Friday 31 Oct 2014 (Local Time) from KPGD Reporting Station
Broken Clouds Broken Clouds  
Wind Chill: 24°   Ceiling: 8000
Heat Index: 24°   Visibility: 10mi
Dew Point: 19°   Wind: 9mph
Humidity: 73%   Direction: 360°N
Pressure: 29.91"   Gusts: NA
Location:  26.98°N, 82.1°W
Report Text: KPGD 311353Z 36008KT 10SM SCT033 BKN080 24/19 A2991 RMK AO2 SLP130 T02390189
Loading
Personal Weather Stations






























Interactive Weather Map
Tropical Storm Tracking
New forecast layout! Learn more

10-Day Weather Forecast

Advertisements
Track Severe Weather on mobile